EHKD

De Kooy Airport

Den Helder, The Netherlands
METAR EHKD 160555Z AUTO 22014KT 190V250 9999 FEW014 SCT016 BKN020 19/16 Q1013 WHT 22014KT 9999 SCT015 BKN030 TEMPO FEW008 SCT012 BKN015
Observed Flight Rules
Aug-16 @ 05:55 UTC (20 minutes ago) Marginal Visual Flight Rules
Wind Visibility Clouds
220° at 14 knots 10,000+ meters
  • Few at 1,400' AGL
  • Scattered at 1,600' AGL
  • Broken at 2,000' AGL
  • Scattered at 1,500' AGL
Temperatures Readings
Current 19°C / 66°F
Dewpoint 16°C / 61°F
Humidity 83%
Altimeter 29.91" Hg
Pressure 1013 hPa
Elevation 14
METAR EHKD 160555Z AUTO 22014KT 190V250 9999 FEW014 SCT016 BKN020 19/16 Q1013 WHT 22014KT 9999 SCT015 BKN030 TEMPO FEW008 SCT012 BKN015
Observed Flight Rules
Aug-16 @ 05:55 UTC
(20 minutes ago)
MVFR
Wind Visibility
220° at 14 knots 10,000+ meters
Clouds
  • Few at 1,400' AGL
  • Scattered at 1,600' AGL
  • Broken at 2,000' AGL
  • Scattered at 1,500' AGL
Temperature Dewpoint
19°C / 66°F 16°C / 61°F
Humidity Altimeter Pressure
83% 29.91" Hg 1013 hPa